createdAt,value
2023-01-11T00:01:55.206Z,100491.03
2023-01-11T00:04:23.307Z,100485.13
2023-01-11T00:06:50.375Z,100491.19
2023-01-11T00:09:17.712Z,100486.03
2023-01-11T00:11:44.480Z,100485.13
2023-01-11T00:14:10.973Z,100471.31
2023-01-11T00:16:37.941Z,100467.88
2023-01-11T00:19:05.395Z,100468.72
2023-01-11T00:21:31.816Z,100465.28
2023-01-11T00:23:58.732Z,100471.22
2023-01-11T00:26:25.245Z,100464.31
2023-01-11T00:28:52.959Z,100461.66
2023-01-11T00:31:19.529Z,100454.81
2023-01-11T00:33:46.103Z,100449.50
2023-01-11T00:36:13.274Z,100448.53
2023-01-11T00:38:53.710Z,100446.66
2023-01-11T00:41:41.070Z,100437.19
2023-01-11T00:44:29.366Z,100418.94
2023-01-11T00:47:15.211Z,100410.25
2023-01-11T00:49:42.839Z,100421.47
2023-01-11T00:52:10.288Z,100409.25
2023-01-11T00:54:41.186Z,100407.47
2023-01-11T00:57:08.494Z,100398.75
2023-01-11T00:59:36.333Z,100388.44
2023-01-11T01:02:03.675Z,100391.81
2023-01-11T01:04:30.262Z,100392.72
2023-01-11T01:06:57.403Z,100383.13
2023-01-11T01:09:23.851Z,100393.38
2023-01-11T01:11:50.292Z,100390.03
2023-01-11T01:14:25.976Z,100377.28
2023-01-11T01:16:53.998Z,100365.19
2023-01-11T01:19:22.449Z,100373.69
2023-01-11T01:21:50.289Z,100375.47
2023-01-11T01:24:17.295Z,100370.19
2023-01-11T01:26:43.777Z,100368.41
2023-01-11T01:29:10.342Z,100364.88
2023-01-11T01:31:37.194Z,100360.59
2023-01-11T01:34:03.886Z,100371.03
2023-01-11T01:36:30.309Z,100368.41
2023-01-11T01:38:59.733Z,100371.84
2023-01-11T01:41:26.982Z,100358.72
2023-01-11T01:43:57.189Z,100365.63
2023-01-11T01:46:44.027Z,100370.72
2023-01-11T01:49:31.340Z,100370.53
2023-01-11T01:52:18.449Z,100358.47
2023-01-11T01:55:10.181Z,100372.06
2023-01-11T01:57:58.837Z,100364.50
2023-01-11T02:00:46.114Z,100360.97
2023-01-11T02:03:18.782Z,100361.59
2023-01-11T02:05:46.071Z,100365.72
2023-01-11T02:08:22.497Z,100370.97
2023-01-11T02:10:49.929Z,100365.06
2023-01-11T02:13:17.179Z,100371.84
2023-01-11T02:15:44.047Z,100375.06
2023-01-11T02:18:13.370Z,100370.84
2023-01-11T02:20:52.828Z,100369.13
2023-01-11T02:23:19.214Z,100364.78
2023-01-11T02:26:11.811Z,100363.97
2023-01-11T02:29:02.617Z,100357.66
2023-01-11T02:31:52.043Z,100362.03
2023-01-11T02:34:24.895Z,100362.97
2023-01-11T02:37:11.886Z,100367.34
2023-01-11T02:40:12.534Z,100368.06
2023-01-11T02:43:10.112Z,100351.81
2023-01-11T02:45:46.615Z,100344.94
2023-01-11T02:48:26.703Z,100342.38
2023-01-11T02:51:05.850Z,100340.59
2023-01-11T02:53:39.552Z,100354.41
2023-01-11T02:56:18.657Z,100353.53
2023-01-11T02:58:47.946Z,100331.94
2023-01-11T03:01:16.036Z,100339.00
2023-01-11T03:03:42.992Z,100331.91
2023-01-11T03:06:20.862Z,100336.22
2023-01-11T03:09:23.634Z,100329.31
2023-01-11T03:12:31.181Z,100321.56
2023-01-11T03:15:13.082Z,100319.84
2023-01-11T03:17:52.447Z,100328.47
2023-01-11T03:20:28.679Z,100318.09
2023-01-11T03:23:10.490Z,100325.06
2023-01-11T03:25:53.592Z,100325.81
2023-01-11T03:28:36.902Z,100323.34
2023-01-11T03:31:28.839Z,100320.63
2023-01-11T03:34:17.362Z,100321.53
2023-01-11T03:36:55.208Z,100329.03
2023-01-11T03:39:38.805Z,100324.81
2023-01-11T03:42:09.835Z,100309.91
2023-01-11T03:44:43.759Z,100311.63
2023-01-11T03:47:15.193Z,100304.78
2023-01-11T03:50:08.636Z,100308.94
2023-01-11T03:52:39.249Z,100301.19
2023-01-11T03:55:09.523Z,100295.91
2023-01-11T03:57:42.540Z,100291.69
2023-01-11T04:00:09.819Z,100295.09
2023-01-11T04:02:41.286Z,100283.88
2023-01-11T04:05:10.027Z,100287.06
2023-01-11T04:07:36.918Z,100284.53
2023-01-11T04:10:04.364Z,100282.56
2023-01-11T04:12:31.195Z,100279.19
2023-01-11T04:14:57.825Z,100278.25
2023-01-11T04:17:25.065Z,100279.97
2023-01-11T04:19:52.119Z,100269.66
2023-01-11T04:22:21.742Z,100262.69
2023-01-11T04:24:48.480Z,100253.06
2023-01-11T04:27:14.975Z,100264.25
2023-01-11T04:29:41.734Z,100258.19
2023-01-11T04:32:08.494Z,100259.84
2023-01-11T04:34:34.969Z,100258.00
2023-01-11T04:37:01.721Z,100251.13
2023-01-11T04:39:28.292Z,100243.25
2023-01-11T04:42:13.589Z,100241.56
2023-01-11T04:44:40.633Z,100245.03
2023-01-11T04:47:07.473Z,100241.38
2023-01-11T04:49:34.088Z,100236.94
2023-01-11T04:52:00.854Z,100231.75
2023-01-11T04:54:27.284Z,100243.13
2023-01-11T04:56:54.279Z,100234.31
2023-01-11T04:59:21.368Z,100246.56
2023-01-11T05:01:48.062Z,100239.56
2023-01-11T05:04:15.512Z,100243.84
2023-01-11T05:06:42.336Z,100242.09
2023-01-11T05:09:18.249Z,100238.75
2023-01-11T05:11:45.551Z,100243.75
2023-01-11T05:14:14.366Z,100243.81
2023-01-11T05:16:42.300Z,100244.81
2023-01-11T05:19:10.797Z,100243.13
2023-01-11T05:21:40.034Z,100238.78
2023-01-11T05:24:09.227Z,100241.28
2023-01-11T05:26:38.600Z,100237.97
2023-01-11T05:29:08.613Z,100234.63
2023-01-11T05:31:37.210Z,100244.97
2023-01-11T05:34:06.847Z,100244.19
2023-01-11T05:36:35.128Z,100241.38
2023-01-11T05:39:05.196Z,100237.03
2023-01-11T05:41:33.287Z,100240.69
2023-01-11T05:44:18.616Z,100241.47
2023-01-11T05:46:45.522Z,100240.72
2023-01-11T05:49:13.741Z,100236.34
2023-01-11T05:51:41.892Z,100234.69
2023-01-11T05:54:12.301Z,100227.75
2023-01-11T05:56:39.127Z,100221.75
2023-01-11T05:59:06.232Z,100219.91
2023-01-11T06:01:33.008Z,100213.06
2023-01-11T06:03:59.910Z,100212.97
2023-01-11T06:06:26.623Z,100211.97
2023-01-11T06:08:53.082Z,100213.72
2023-01-11T06:11:19.753Z,100214.59
2023-01-11T06:13:46.709Z,100212.66
2023-01-11T06:16:19.024Z,100207.50
2023-01-11T06:18:48.590Z,100201.44
2023-01-11T06:21:16.380Z,100202.25
2023-01-11T06:23:45.688Z,100209.03
2023-01-11T06:26:15.385Z,100196.84
2023-01-11T06:28:45.381Z,100189.06
2023-01-11T06:31:12.577Z,100183.00
2023-01-11T06:33:39.684Z,100186.50
2023-01-11T06:36:09.060Z,100177.72
2023-01-11T06:38:37.022Z,100173.16
2023-01-11T06:41:07.079Z,100167.97
2023-01-11T06:43:34.792Z,100166.22
2023-01-11T06:46:01.370Z,100162.59
2023-01-11T06:48:28.539Z,100152.03
2023-01-11T06:50:57.198Z,100151.03
2023-01-11T06:53:28.444Z,100143.25
2023-01-11T06:55:58.002Z,100148.25
2023-01-11T06:58:26.895Z,100149.97
2023-01-11T07:00:56.999Z,100149.81
2023-01-11T07:03:25.364Z,100142.78
2023-01-11T07:05:53.637Z,100144.53
2023-01-11T07:08:20.481Z,100136.50
2023-01-11T07:10:47.164Z,100141.50
2023-01-11T07:13:16.264Z,100131.97
2023-01-11T07:15:48.722Z,100128.66
2023-01-11T07:18:15.625Z,100125.91
2023-01-11T07:20:42.963Z,100117.91
2023-01-11T07:23:12.963Z,100116.84
2023-01-11T07:25:39.651Z,100112.56
2023-01-11T07:28:07.730Z,100112.97
2023-01-11T07:30:51.906Z,100109.44
2023-01-11T07:33:22.585Z,100107.72
2023-01-11T07:35:49.916Z,100110.41
2023-01-11T07:38:16.761Z,100110.03
2023-01-11T07:40:43.357Z,100116.28
2023-01-11T07:43:18.909Z,100128.31
2023-01-11T07:45:49.854Z,100111.91
2023-01-11T07:48:24.869Z,100103.97
2023-01-11T07:50:52.780Z,100106.97
2023-01-11T07:53:19.662Z,100107.72
2023-01-11T07:55:47.432Z,100110.97
2023-01-11T07:58:15.496Z,100113.81
2023-01-11T08:00:42.103Z,100113.72
2023-01-11T08:03:09.287Z,100117.06
2023-01-11T08:05:36.158Z,100115.31
2023-01-11T08:08:02.868Z,100109.38
2023-01-11T08:10:29.828Z,100116.16
2023-01-11T08:13:15.426Z,100115.16
2023-01-11T08:15:44.977Z,100114.16
2023-01-11T08:18:12.215Z,100113.38
2023-01-11T08:20:40.107Z,100113.47
2023-01-11T08:23:11.875Z,100110.78
2023-01-11T08:25:38.504Z,100113.25
2023-01-11T08:28:07.416Z,100127.97
2023-01-11T08:30:35.120Z,100107.75
2023-01-11T08:33:02.741Z,100108.75
2023-01-11T08:35:30.405Z,100103.44
2023-01-11T08:37:57.139Z,100105.09
2023-01-11T08:40:25.386Z,100107.63
2023-01-11T08:42:56.728Z,100111.09
2023-01-11T08:45:23.959Z,100110.19
2023-01-11T08:47:51.826Z,100118.16
2023-01-11T08:50:20.638Z,100109.44
2023-01-11T08:52:51.384Z,100124.38
2023-01-11T08:55:19.422Z,100121.75
2023-01-11T08:57:46.545Z,100125.28
2023-01-11T09:00:13.771Z,100127.72
2023-01-11T09:02:40.514Z,100125.22
2023-01-11T09:05:07.424Z,100123.50
2023-01-11T09:07:34.321Z,100125.16
2023-01-11T09:10:01.100Z,100124.25
2023-01-11T09:12:28.114Z,100122.72
2023-01-11T09:14:54.569Z,100131.38
2023-01-11T09:17:21.306Z,100133.66
2023-01-11T09:19:47.849Z,100128.41
2023-01-11T09:22:14.503Z,100129.25
2023-01-11T09:24:41.379Z,100123.19
2023-01-11T09:27:08.137Z,100126.00
2023-01-11T09:29:37.125Z,100137.81
2023-01-11T09:32:04.531Z,100130.31
2023-01-11T09:34:31.398Z,100131.84
2023-01-11T09:37:00.785Z,100144.88
2023-01-11T09:39:28.870Z,100141.41
2023-01-11T09:42:01.983Z,100144.88
2023-01-11T09:44:30.111Z,100144.06
2023-01-11T09:47:12.282Z,100140.56
2023-01-11T09:49:40.722Z,100152.78
2023-01-11T09:52:29.250Z,100158.09
2023-01-11T09:55:00.489Z,100162.28
2023-01-11T09:57:54.673Z,100154.53
2023-01-11T10:00:50.446Z,100157.13
2023-01-11T10:03:38.799Z,100158.88
2023-01-11T10:06:29.142Z,100170.41
2023-01-11T10:18:30.856Z,100166.91
2023-01-11T10:18:31.011Z,100171.22
2023-01-11T10:20:57.858Z,100168.59
2023-01-11T10:23:32.728Z,100162.56
2023-01-11T10:26:04.882Z,100165.94
2023-01-11T10:28:46.417Z,100163.34
2023-01-11T10:31:44.869Z,100168.59
2023-01-11T10:34:42.452Z,100163.41
2023-01-11T10:37:13.174Z,100154.53
2023-01-11T10:40:07.213Z,100165.91
2023-01-11T10:42:45.788Z,100168.25
2023-01-11T10:45:22.203Z,100171.75
2023-01-11T10:48:01.532Z,100165.63
2023-01-11T10:50:36.541Z,100165.59
2023-01-11T10:53:25.739Z,100176.00
2023-01-11T10:56:21.647Z,100178.59
2023-01-11T10:59:15.649Z,100182.06
2023-01-11T11:02:29.652Z,100184.41
2023-01-11T11:05:19.025Z,100186.00
2023-01-11T11:08:14.814Z,100195.47
2023-01-11T11:10:54.186Z,100192.00
2023-01-11T11:13:46.657Z,100197.97
2023-01-11T11:16:22.310Z,100197.00
2023-01-11T11:18:51.029Z,100191.75
2023-01-11T11:21:24.003Z,100184.78
2023-01-11T11:24:02.034Z,100182.03
2023-01-11T11:26:39.794Z,100181.13
2023-01-11T11:29:08.961Z,100169.75
2023-01-11T11:31:44.217Z,100174.00
2023-01-11T11:34:17.688Z,100180.81
2023-01-11T11:36:47.480Z,100171.28
2023-01-11T11:39:31.499Z,100162.53
2023-01-11T11:42:14.913Z,100174.41
2023-01-11T11:44:41.899Z,100164.06
2023-01-11T11:47:16.484Z,100167.56
2023-01-11T11:49:43.610Z,100164.75
2023-01-11T11:52:15.077Z,100164.84
2023-01-11T11:54:58.010Z,100154.28
2023-01-11T11:57:36.925Z,100158.78
2023-01-11T12:00:25.264Z,100142.44
2023-01-11T12:02:59.005Z,100153.75
2023-01-11T12:05:26.405Z,100143.34
2023-01-11T12:07:55.780Z,100138.88
2023-01-11T12:10:25.512Z,100144.00
2023-01-11T12:12:53.949Z,100149.13
2023-01-11T12:15:27.054Z,100158.66
2023-01-11T12:17:55.107Z,100165.69
2023-01-11T12:20:21.574Z,100165.69
2023-01-11T12:22:50.327Z,100149.28
2023-01-11T12:25:17.026Z,100151.69
2023-01-11T12:28:09.063Z,100150.84
2023-01-11T12:30:42.338Z,100146.53
2023-01-11T12:33:31.159Z,100147.28
2023-01-11T12:36:12.732Z,100149.13
2023-01-11T12:38:41.975Z,100139.50
2023-01-11T12:41:43.550Z,100146.34
2023-01-11T12:44:18.620Z,100137.53
2023-01-11T12:47:20.608Z,100141.22
2023-01-11T12:49:56.429Z,100130.69
2023-01-11T12:52:50.697Z,100141.16
2023-01-11T12:55:47.534Z,100143.75
2023-01-11T12:58:22.054Z,100151.47
2023-01-11T13:01:16.461Z,100165.44
2023-01-11T13:04:21.112Z,100173.44
2023-01-11T13:07:03.476Z,100179.44
2023-01-11T13:09:57.373Z,100183.75
2023-01-11T13:12:36.173Z,100176.81
2023-01-11T13:15:16.792Z,100182.09
2023-01-11T13:18:18.178Z,100176.88
2023-01-11T13:21:01.781Z,100181.94
2023-01-11T13:23:39.082Z,100184.59
2023-01-11T13:26:28.656Z,100181.97
2023-01-11T13:29:02.842Z,100181.13
2023-01-11T13:31:33.945Z,100195.06
2023-01-11T13:34:07.231Z,100191.56
2023-01-11T13:36:43.856Z,100195.97
2023-01-11T13:39:20.817Z,100176.81
2023-01-11T13:41:54.993Z,100187.38
2023-01-11T13:44:27.673Z,100186.34
2023-01-11T13:47:17.171Z,100195.13
2023-01-11T13:49:49.751Z,100201.06
2023-01-11T13:52:20.273Z,100192.19
2023-01-11T13:55:09.041Z,100200.00
2023-01-11T13:57:57.825Z,100195.34
2023-01-11T14:00:32.706Z,100199.78
2023-01-11T14:03:12.096Z,100211.63
2023-01-11T14:05:58.843Z,100210.88
2023-01-11T14:08:55.413Z,100218.56
2023-01-11T14:11:37.031Z,100223.91
2023-01-11T14:14:33.235Z,100226.69
2023-01-11T14:17:27.363Z,100224.88
2023-01-11T14:20:05.544Z,100222.06
2023-01-11T14:22:47.175Z,100229.19
2023-01-11T14:25:26.233Z,100219.59
2023-01-11T14:28:02.994Z,100224.56
2023-01-11T14:31:01.569Z,100232.44
2023-01-11T14:33:58.787Z,100227.41
2023-01-11T14:36:37.376Z,100227.53
2023-01-11T14:39:33.671Z,100228.38
2023-01-11T14:42:36.095Z,100244.34
2023-01-11T14:45:38.313Z,100242.63
2023-01-11T14:48:36.128Z,100251.25
2023-01-11T14:51:33.302Z,100252.25
2023-01-11T14:54:10.369Z,100255.50
2023-01-11T14:56:43.157Z,100264.38
2023-01-11T14:59:32.207Z,100270.66
2023-01-11T15:02:05.552Z,100281.94
2023-01-11T15:04:37.332Z,100296.72
2023-01-11T15:07:29.249Z,100298.59
2023-01-11T15:09:57.831Z,100301.81
2023-01-11T15:12:33.180Z,100303.56
2023-01-11T15:15:07.592Z,100310.59
2023-01-11T15:17:53.302Z,100313.94
2023-01-11T15:20:21.715Z,100319.31
2023-01-11T15:22:56.885Z,100324.50
2023-01-11T15:25:29.537Z,100322.75
2023-01-11T15:27:57.014Z,100327.31
2023-01-11T15:30:29.769Z,100326.56
2023-01-11T15:33:18.753Z,100325.66
2023-01-11T15:36:07.787Z,100327.41
2023-01-11T15:39:02.584Z,100318.94
2023-01-11T15:42:06.611Z,100331.06
2023-01-11T15:45:18.887Z,100338.22
2023-01-11T15:48:07.241Z,100333.16
2023-01-11T15:50:52.901Z,100332.16
2023-01-11T15:53:43.328Z,100339.19
2023-01-11T15:56:28.257Z,100347.00
2023-01-11T15:59:26.515Z,100347.66
2023-01-11T16:02:16.095Z,100348.78
2023-01-11T16:04:49.477Z,100359.81
2023-01-11T16:07:41.940Z,100371.38
2023-01-11T16:10:23.736Z,100384.44
2023-01-11T16:13:08.061Z,100390.53
2023-01-11T16:15:59.748Z,100391.63
2023-01-11T16:18:30.247Z,100391.69
2023-01-11T16:20:59.570Z,100397.94
2023-01-11T16:23:26.049Z,100399.72
2023-01-11T16:25:57.562Z,100407.81
2023-01-11T16:28:25.101Z,100413.94
2023-01-11T16:30:57.321Z,100417.50
2023-01-11T16:33:27.138Z,100424.50
2023-01-11T16:36:10.383Z,100426.47
2023-01-11T16:38:52.613Z,100429.84
2023-01-11T16:41:19.953Z,100430.91
2023-01-11T16:43:58.739Z,100431.91
2023-01-11T16:47:17.973Z,100444.94
2023-01-11T16:49:52.511Z,100450.25
2023-01-11T16:52:28.260Z,100453.88
2023-01-11T16:54:56.979Z,100455.72
2023-01-11T16:57:29.554Z,100458.13
2023-01-11T17:00:01.722Z,100464.44
2023-01-11T17:02:40.313Z,100463.50
2023-01-11T17:05:22.378Z,100459.25
2023-01-11T17:07:48.820Z,100474.22
2023-01-11T17:10:29.776Z,100472.50
2023-01-11T17:13:48.322Z,100466.50
2023-01-11T17:16:16.235Z,100485.69
2023-01-11T17:18:43.913Z,100491.59
2023-01-11T17:21:20.177Z,100495.22
2023-01-11T17:23:48.691Z,100502.06
2023-01-11T17:26:23.491Z,100503.09
2023-01-11T17:28:52.817Z,100508.50
2023-01-11T17:31:26.640Z,100504.16
2023-01-11T17:34:03.246Z,100512.03
2023-01-11T17:36:31.203Z,100532.03
2023-01-11T17:38:59.108Z,100537.34
2023-01-11T17:41:46.573Z,100535.56
2023-01-11T17:44:39.219Z,100538.28
2023-01-11T17:47:08.571Z,100543.53
2023-01-11T17:49:37.987Z,100548.16
2023-01-11T17:52:10.149Z,100542.13
2023-01-11T17:54:36.761Z,100543.09
2023-01-11T17:57:03.699Z,100535.50
2023-01-11T17:59:31.320Z,100545.84
2023-01-11T18:02:03.843Z,100550.38
2023-01-11T18:04:32.215Z,100548.72
2023-01-11T18:07:15.207Z,100555.91
2023-01-11T18:09:50.603Z,100576.66
2023-01-11T18:12:23.924Z,100579.25
2023-01-11T18:14:58.948Z,100582.78
2023-01-11T18:17:39.787Z,100581.06
2023-01-11T18:20:29.480Z,100590.50
2023-01-11T18:23:20.595Z,100599.28
2023-01-11T18:25:47.270Z,100604.31
2023-01-11T18:28:26.426Z,100602.66
2023-01-11T18:30:57.662Z,100604.38
2023-01-11T18:33:32.515Z,100606.19
2023-01-11T18:36:02.971Z,100612.19
2023-01-11T18:38:32.604Z,100613.00
2023-01-11T18:41:23.397Z,100620.81
2023-01-11T18:43:49.997Z,100620.81
2023-01-11T18:46:17.869Z,100626.94
2023-01-11T18:48:44.728Z,100645.09
2023-01-11T18:51:27.230Z,100644.31
2023-01-11T18:53:53.741Z,100642.72
2023-01-11T18:56:20.319Z,100641.91
2023-01-11T18:58:46.724Z,100644.50
2023-01-11T19:01:14.064Z,100652.41
2023-01-11T19:03:41.461Z,100671.53
2023-01-11T19:06:19.230Z,100671.47
2023-01-11T19:08:45.668Z,100666.38
2023-01-11T19:11:13.856Z,100665.66
2023-01-11T19:13:40.911Z,100668.34
2023-01-11T19:16:08.097Z,100666.59
2023-01-11T19:18:35.382Z,100665.72
2023-01-11T19:21:06.545Z,100651.03
2023-01-11T19:23:34.392Z,100655.34
2023-01-11T19:26:03.760Z,100662.38
2023-01-11T19:28:30.550Z,100665.84
2023-01-11T19:30:58.062Z,100668.44
2023-01-11T19:33:25.090Z,100663.25
2023-01-11T19:35:51.937Z,100664.16
2023-01-11T19:38:19.576Z,100663.31
2023-01-11T19:40:48.937Z,100666.66
2023-01-11T19:43:16.080Z,100662.25
2023-01-11T19:45:42.479Z,100659.75
2023-01-11T19:48:09.081Z,100657.97
2023-01-11T19:50:35.598Z,100660.53
2023-01-11T19:53:02.018Z,100663.81
2023-01-11T19:55:28.647Z,100667.13
2023-01-11T19:57:55.092Z,100672.28
2023-01-11T20:00:21.632Z,100677.50
2023-01-11T20:02:48.094Z,100679.16
2023-01-11T20:05:14.670Z,100673.94
2023-01-11T20:07:41.077Z,100670.41
2023-01-11T20:10:07.866Z,100654.94
2023-01-11T20:12:34.367Z,100661.84
2023-01-11T20:15:01.456Z,100675.75
2023-01-11T20:17:28.710Z,100663.63
2023-01-11T20:19:55.421Z,100663.69
2023-01-11T20:22:23.223Z,100656.00
2023-01-11T20:24:50.536Z,100647.44
2023-01-11T20:27:17.509Z,100643.19
2023-01-11T20:29:43.946Z,100653.66
2023-01-11T20:32:34.873Z,100663.25
2023-01-11T20:34:57.530Z,100656.34
2023-01-11T20:38:15.043Z,100664.97
2023-01-11T20:40:41.658Z,100671.16
2023-01-11T20:43:10.539Z,100675.53
2023-01-11T20:45:39.439Z,100692.84
2023-01-11T20:48:13.659Z,100696.31
2023-01-11T20:50:40.550Z,100686.81
2023-01-11T20:53:07.361Z,100685.91
2023-01-11T20:55:33.999Z,100679.13
2023-01-11T20:58:01.107Z,100672.25
2023-01-11T21:00:35.263Z,100673.06
2023-01-11T21:03:08.655Z,100667.09
2023-01-11T21:05:39.797Z,100668.00
2023-01-11T21:08:06.312Z,100651.59
2023-01-11T21:10:33.390Z,100653.47
2023-01-11T21:13:03.751Z,100648.50
2023-01-11T21:15:30.309Z,100647.66
2023-01-11T21:17:56.913Z,100644.41
2023-01-11T21:20:23.471Z,100652.97
2023-01-11T21:22:49.987Z,100656.47
2023-01-11T21:25:17.440Z,100654.84
2023-01-11T21:27:43.984Z,100648.84
2023-01-11T21:30:11.175Z,100654.94
2023-01-11T21:32:37.711Z,100655.78
2023-01-11T21:35:05.451Z,100650.59
2023-01-11T21:37:32.382Z,100656.78
2023-01-11T21:39:58.790Z,100652.53
2023-01-11T21:42:25.286Z,100651.66
2023-01-11T21:44:51.996Z,100660.38
2023-01-11T21:47:19.598Z,100662.03
2023-01-11T21:49:46.497Z,100659.44
2023-01-11T21:52:13.671Z,100660.38
2023-01-11T21:54:40.441Z,100658.56
2023-01-11T21:57:06.943Z,100649.06
2023-01-11T21:59:35.750Z,100660.34
2023-01-11T22:02:02.338Z,100652.53
2023-01-11T22:04:28.812Z,100657.75
2023-01-11T22:06:56.202Z,100663.84
2023-01-11T22:09:26.625Z,100658.69
2023-01-11T22:11:53.575Z,100650.13
2023-01-11T22:14:20.724Z,100657.00
2023-01-11T22:16:47.577Z,100665.69
2023-01-11T22:19:14.884Z,100662.34
2023-01-11T22:21:41.716Z,100670.06
2023-01-11T22:24:10.958Z,100670.09
2023-01-11T22:26:39.200Z,100670.97
2023-01-11T22:29:16.431Z,100669.22
2023-01-11T22:31:54.474Z,100675.25
2023-01-11T22:34:22.142Z,100674.41
2023-01-11T22:36:48.940Z,100667.47
2023-01-11T22:39:16.978Z,100666.56
2023-01-11T22:41:45.485Z,100664.81
2023-01-11T22:44:12.670Z,100669.16
2023-01-11T22:46:40.717Z,100670.94
2023-01-11T22:49:08.059Z,100672.66
2023-01-11T22:51:36.083Z,100677.84
2023-01-11T22:54:03.554Z,100678.78
2023-01-11T22:56:30.675Z,100676.16
2023-01-11T22:58:58.219Z,100669.22
2023-01-11T23:01:27.621Z,100664.06
2023-01-11T23:03:55.274Z,100651.16
2023-01-11T23:06:27.580Z,100657.19
2023-01-11T23:08:54.679Z,100655.38
2023-01-11T23:11:45.851Z,100671.88
2023-01-11T23:14:15.685Z,100672.72
2023-01-11T23:16:42.913Z,100673.63
2023-01-11T23:19:10.884Z,100671.06
2023-01-11T23:21:42.168Z,100671.88
2023-01-11T23:24:10.549Z,100669.38
2023-01-11T23:26:37.210Z,100674.56
2023-01-11T23:29:04.888Z,100677.97
2023-01-11T23:31:31.883Z,100677.09
2023-01-11T23:34:00.520Z,100674.47
2023-01-11T23:36:30.645Z,100664.94
2023-01-11T23:38:57.633Z,100658.00
2023-01-11T23:41:43.719Z,100670.03
2023-01-11T23:44:13.102Z,100659.75
2023-01-11T23:47:00.739Z,100656.25
2023-01-11T23:49:28.665Z,100650.19
2023-01-11T23:51:55.780Z,100641.59
2023-01-11T23:54:25.732Z,100648.47
2023-01-11T23:56:52.131Z,100645.88
2023-01-11T23:59:19.116Z,100637.25
